createdAt,value
2023-01-11T00:00:15.928Z,3.90
2023-01-11T00:02:17.645Z,3.84
2023-01-11T00:04:19.535Z,3.89
2023-01-11T00:06:21.211Z,3.86
2023-01-11T00:08:24.522Z,3.87
2023-01-11T00:10:26.280Z,3.96
2023-01-11T00:12:28.629Z,4.07
2023-01-11T00:14:30.131Z,4.18
2023-01-11T00:16:31.789Z,4.27
2023-01-11T00:18:33.307Z,4.36
2023-01-11T00:20:34.923Z,4.38
2023-01-11T00:22:36.773Z,4.44
2023-01-11T00:24:38.268Z,4.47
2023-01-11T00:26:39.884Z,4.47
2023-01-11T00:28:41.987Z,4.40
2023-01-11T00:30:43.449Z,4.38
2023-01-11T00:32:45.010Z,4.09
2023-01-11T00:34:46.607Z,3.95
2023-01-11T00:36:48.124Z,3.94
2023-01-11T00:38:54.383Z,3.89
2023-01-11T00:40:55.879Z,3.90
2023-01-11T00:43:16.158Z,3.79
2023-01-11T00:45:36.066Z,3.65
2023-01-11T00:47:56.156Z,3.53
2023-01-11T00:49:57.848Z,3.66
2023-01-11T00:51:59.587Z,3.81
2023-01-11T00:54:01.060Z,3.93
2023-01-11T00:56:02.532Z,3.98
2023-01-11T00:58:04.195Z,4.04
2023-01-11T01:00:06.438Z,4.09
2023-01-11T01:02:08.974Z,4.16
2023-01-11T01:04:10.683Z,4.17
2023-01-11T01:06:12.373Z,4.16
2023-01-11T01:08:13.918Z,4.15
2023-01-11T01:10:15.909Z,4.18
2023-01-11T01:12:36.253Z,4.16
2023-01-11T01:14:37.780Z,4.13
2023-01-11T01:16:39.247Z,4.15
2023-01-11T01:18:40.859Z,4.17
2023-01-11T01:20:42.452Z,4.15
2023-01-11T01:22:43.949Z,4.16
2023-01-11T01:24:45.484Z,4.13
2023-01-11T01:26:47.131Z,4.11
2023-01-11T01:28:48.874Z,4.10
2023-01-11T01:30:51.584Z,4.08
2023-01-11T01:32:54.437Z,4.15
2023-01-11T01:34:55.950Z,4.15
2023-01-11T01:36:57.541Z,4.13
2023-01-11T01:38:59.966Z,4.09
2023-01-11T01:41:01.502Z,4.01
2023-01-11T01:43:03.129Z,4.03
2023-01-11T01:45:06.909Z,4.05
2023-01-11T01:47:08.538Z,4.11
2023-01-11T01:49:11.893Z,4.15
2023-01-11T01:51:15.088Z,4.02
2023-01-11T01:53:26.595Z,4.01
2023-01-11T01:55:29.236Z,3.95
2023-01-11T01:57:31.455Z,4.00
2023-01-11T01:59:32.996Z,4.03
2023-01-11T02:01:50.076Z,4.06
2023-01-11T02:03:51.917Z,4.06
2023-01-11T02:05:53.416Z,4.08
2023-01-11T02:07:56.383Z,4.10
2023-01-11T02:10:08.092Z,4.06
2023-01-11T02:12:09.679Z,4.06
2023-01-11T02:14:12.745Z,4.07
2023-01-11T02:16:14.266Z,4.02
2023-01-11T02:18:15.793Z,4.03
2023-01-11T02:20:17.434Z,4.03
2023-01-11T02:22:37.220Z,4.01
2023-01-11T02:24:38.680Z,4.04
2023-01-11T02:26:46.002Z,4.08
2023-01-11T02:29:00.700Z,4.14
2023-01-11T02:31:14.701Z,4.21
2023-01-11T02:33:18.840Z,4.19
2023-01-11T02:35:26.576Z,4.17
2023-01-11T02:37:46.377Z,4.15
2023-01-11T02:39:47.927Z,4.12
2023-01-11T02:42:23.376Z,4.04
2023-01-11T02:44:47.790Z,3.97
2023-01-11T02:46:56.674Z,3.93
2023-01-11T02:49:16.981Z,3.86
2023-01-11T02:51:27.191Z,3.86
2023-01-11T02:53:31.364Z,3.84
2023-01-11T02:55:34.945Z,3.73
2023-01-11T02:57:39.291Z,3.79
2023-01-11T02:59:41.895Z,3.71
2023-01-11T03:01:44.648Z,3.69
2023-01-11T03:03:46.241Z,3.72
2023-01-11T03:05:50.521Z,3.71
2023-01-11T03:08:00.142Z,3.71
2023-01-11T03:10:17.972Z,3.76
2023-01-11T03:12:51.981Z,3.78
2023-01-11T03:14:59.710Z,3.82
2023-01-11T03:17:06.170Z,3.81
2023-01-11T03:19:25.364Z,3.81
2023-01-11T03:21:29.984Z,3.85
2023-01-11T03:23:43.236Z,3.89
2023-01-11T03:26:04.398Z,3.93
2023-01-11T03:28:09.411Z,3.91
2023-01-11T03:30:13.658Z,3.98
2023-01-11T03:32:26.276Z,4.04
2023-01-11T03:34:37.174Z,4.08
2023-01-11T03:36:40.557Z,4.04
2023-01-11T03:38:49.601Z,4.06
2023-01-11T03:40:53.273Z,4.01
2023-01-11T03:43:12.518Z,4.03
2023-01-11T03:45:14.090Z,4.06
2023-01-11T03:47:15.965Z,4.06
2023-01-11T03:49:21.838Z,4.01
2023-01-11T03:51:45.055Z,3.99
2023-01-11T03:53:47.081Z,4.02
2023-01-11T03:55:50.060Z,4.07
2023-01-11T03:57:52.649Z,4.12
2023-01-11T03:59:54.149Z,4.15
2023-01-11T04:01:55.785Z,4.15
2023-01-11T04:03:57.475Z,4.17
2023-01-11T04:06:00.059Z,4.13
2023-01-11T04:08:01.560Z,4.10
2023-01-11T04:10:03.465Z,4.07
2023-01-11T04:12:05.147Z,4.11
2023-01-11T04:14:06.789Z,4.04
2023-01-11T04:16:08.390Z,4.02
2023-01-11T04:18:09.976Z,4.02
2023-01-11T04:20:12.217Z,4.04
2023-01-11T04:22:13.816Z,4.03
2023-01-11T04:24:15.451Z,3.94
2023-01-11T04:26:17.659Z,3.96
2023-01-11T04:28:19.167Z,3.92
2023-01-11T04:30:21.052Z,3.98
2023-01-11T04:32:22.729Z,4.00
2023-01-11T04:34:24.250Z,4.03
2023-01-11T04:36:26.702Z,4.02
2023-01-11T04:38:28.246Z,4.04
2023-01-11T04:40:29.826Z,4.09
2023-01-11T04:42:31.337Z,4.12
2023-01-11T04:44:32.842Z,4.07
2023-01-11T04:46:34.674Z,4.08
2023-01-11T04:48:36.235Z,4.13
2023-01-11T04:50:37.767Z,4.15
2023-01-11T04:52:41.793Z,4.21
2023-01-11T04:54:43.475Z,4.22
2023-01-11T04:56:45.011Z,4.15
2023-01-11T04:58:46.892Z,4.20
2023-01-11T05:00:48.388Z,4.21
2023-01-11T05:02:49.984Z,4.24
2023-01-11T05:04:51.470Z,4.20
2023-01-11T05:06:53.064Z,4.18
2023-01-11T05:08:54.660Z,4.19
2023-01-11T05:10:57.135Z,4.16
2023-01-11T05:12:58.659Z,4.17
2023-01-11T05:15:00.237Z,4.12
2023-01-11T05:17:01.762Z,4.17
2023-01-11T05:19:03.912Z,4.17
2023-01-11T05:21:06.512Z,4.18
2023-01-11T05:23:08.059Z,4.17
2023-01-11T05:25:09.685Z,4.15
2023-01-11T05:27:11.239Z,4.11
2023-01-11T05:29:14.238Z,4.02
2023-01-11T05:31:16.182Z,3.98
2023-01-11T05:33:17.723Z,3.89
2023-01-11T05:35:19.616Z,3.98
2023-01-11T05:37:21.194Z,4.00
2023-01-11T05:39:23.958Z,3.95
2023-01-11T05:41:26.327Z,3.89
2023-01-11T05:43:28.633Z,3.94
2023-01-11T05:45:31.991Z,3.89
2023-01-11T05:47:33.606Z,3.91
2023-01-11T05:49:35.149Z,3.87
2023-01-11T05:51:38.187Z,3.90
2023-01-11T05:53:39.789Z,3.95
2023-01-11T05:55:51.423Z,4.03
2023-01-11T05:57:52.926Z,4.07
2023-01-11T05:59:54.438Z,4.10
2023-01-11T06:01:56.101Z,4.14
2023-01-11T06:03:57.630Z,4.14
2023-01-11T06:05:59.758Z,4.16
2023-01-11T06:08:01.628Z,4.15
2023-01-11T06:10:03.386Z,4.17
2023-01-11T06:12:04.967Z,4.18
2023-01-11T06:14:06.472Z,4.21
2023-01-11T06:16:10.020Z,4.28
2023-01-11T06:18:11.812Z,4.23
2023-01-11T06:20:13.390Z,4.25
2023-01-11T06:22:14.914Z,4.23
2023-01-11T06:24:16.433Z,4.25
2023-01-11T06:26:19.531Z,4.27
2023-01-11T06:28:21.154Z,4.34
2023-01-11T06:30:25.821Z,4.35
2023-01-11T06:32:29.047Z,4.31
2023-01-11T06:34:30.660Z,4.38
2023-01-11T06:36:32.200Z,4.35
2023-01-11T06:38:33.904Z,4.43
2023-01-11T06:40:35.765Z,4.47
2023-01-11T06:42:37.356Z,4.49
2023-01-11T06:44:38.916Z,4.55
2023-01-11T06:46:40.599Z,4.60
2023-01-11T06:48:42.579Z,4.66
2023-01-11T06:50:47.248Z,4.72
2023-01-11T06:52:58.956Z,4.62
2023-01-11T06:55:00.519Z,4.55
2023-01-11T06:57:02.086Z,4.59
2023-01-11T06:59:04.556Z,4.62
2023-01-11T07:01:06.319Z,4.61
2023-01-11T07:03:08.050Z,4.68
2023-01-11T07:05:10.155Z,4.71
2023-01-11T07:07:11.679Z,4.77
2023-01-11T07:09:13.111Z,4.79
2023-01-11T07:11:14.772Z,4.83
2023-01-11T07:13:17.401Z,4.84
2023-01-11T07:15:19.247Z,4.82
2023-01-11T07:17:21.006Z,4.84
2023-01-11T07:19:22.566Z,4.77
2023-01-11T07:21:24.058Z,4.69
2023-01-11T07:23:25.573Z,4.63
2023-01-11T07:25:27.872Z,4.42
2023-01-11T07:27:29.485Z,4.16
2023-01-11T07:29:31.041Z,4.18
2023-01-11T07:31:32.722Z,4.29
2023-01-11T07:33:35.321Z,4.32
2023-01-11T07:35:36.966Z,4.08
2023-01-11T07:37:38.536Z,4.13
2023-01-11T07:39:43.932Z,4.25
2023-01-11T07:42:04.091Z,4.36
2023-01-11T07:44:05.675Z,4.51
2023-01-11T07:46:07.385Z,4.61
2023-01-11T07:48:10.656Z,4.73
2023-01-11T07:50:12.193Z,4.81
2023-01-11T07:52:13.908Z,4.86
2023-01-11T07:54:15.353Z,4.86
2023-01-11T07:56:17.097Z,4.93
2023-01-11T07:58:18.665Z,4.89
2023-01-11T08:00:20.421Z,4.84
2023-01-11T08:02:21.953Z,4.87
2023-01-11T08:04:23.535Z,4.69
2023-01-11T08:06:25.258Z,3.86
2023-01-11T08:08:26.790Z,3.51
2023-01-11T08:10:28.317Z,3.69
2023-01-11T08:12:51.366Z,3.85
2023-01-11T08:14:53.117Z,4.06
2023-01-11T08:16:54.659Z,4.19
2023-01-11T08:18:56.112Z,4.20
2023-01-11T08:20:57.578Z,4.33
2023-01-11T08:23:02.224Z,4.44
2023-01-11T08:25:03.800Z,4.47
2023-01-11T08:27:05.302Z,4.55
2023-01-11T08:29:06.917Z,4.55
2023-01-11T08:31:08.979Z,4.53
2023-01-11T08:33:10.470Z,4.71
2023-01-11T08:35:12.342Z,4.85
2023-01-11T08:37:14.603Z,4.90
2023-01-11T08:39:16.166Z,5.00
2023-01-11T08:41:17.649Z,5.04
2023-01-11T08:43:19.305Z,4.87
2023-01-11T08:45:20.795Z,4.64
2023-01-11T08:47:23.179Z,4.64
2023-01-11T08:49:25.052Z,4.80
2023-01-11T08:51:26.586Z,4.96
2023-01-11T08:53:28.299Z,4.93
2023-01-11T08:55:30.968Z,4.99
2023-01-11T08:57:32.489Z,4.96
2023-01-11T08:59:34.017Z,5.01
2023-01-11T09:01:35.586Z,5.07
2023-01-11T09:03:37.229Z,5.07
2023-01-11T09:05:39.474Z,5.11
2023-01-11T09:07:41.151Z,5.19
2023-01-11T09:09:42.646Z,5.18
2023-01-11T09:12:00.955Z,5.19
2023-01-11T09:14:02.469Z,5.24
2023-01-11T09:16:04.049Z,5.24
2023-01-11T09:18:05.714Z,5.25
2023-01-11T09:20:07.556Z,5.32
2023-01-11T09:22:09.071Z,5.41
2023-01-11T09:24:10.614Z,5.46
2023-01-11T09:26:12.633Z,5.59
2023-01-11T09:28:14.179Z,5.69
2023-01-11T09:30:18.831Z,5.69
2023-01-11T09:32:20.384Z,5.75
2023-01-11T09:34:21.973Z,5.79
2023-01-11T09:36:26.630Z,5.73
2023-01-11T09:38:30.823Z,5.66
2023-01-11T09:40:35.410Z,5.67
2023-01-11T09:42:39.759Z,5.60
2023-01-11T09:45:02.766Z,5.64
2023-01-11T09:47:25.550Z,5.26
2023-01-11T09:49:28.441Z,4.65
2023-01-11T09:51:33.565Z,4.30
2023-01-11T09:53:37.220Z,4.37
2023-01-11T09:55:46.981Z,4.67
2023-01-11T09:57:52.107Z,4.76
2023-01-11T10:00:12.256Z,4.93
2023-01-11T10:05:10.975Z,4.60
2023-01-11T10:07:23.214Z,4.65
2023-01-11T10:18:28.387Z,4.19
2023-01-11T10:18:33.481Z,4.38
2023-01-11T10:19:39.494Z,4.35
2023-01-11T10:21:46.704Z,4.60
2023-01-11T10:24:14.858Z,4.51
2023-01-11T10:26:24.313Z,4.29
2023-01-11T10:28:36.271Z,4.06
2023-01-11T10:30:51.561Z,4.16
2023-01-11T10:33:14.887Z,4.51
2023-01-11T10:35:37.922Z,4.21
2023-01-11T10:38:11.431Z,4.12
2023-01-11T10:40:31.344Z,4.09
2023-01-11T10:42:34.029Z,4.08
2023-01-11T10:44:48.878Z,4.38
2023-01-11T10:46:51.293Z,4.71
2023-01-11T10:49:28.683Z,5.03
2023-01-11T10:51:31.799Z,5.34
2023-01-11T10:53:39.131Z,5.53
2023-01-11T10:55:49.382Z,5.23
2023-01-11T10:58:03.392Z,4.90
2023-01-11T11:00:14.364Z,4.80
2023-01-11T11:02:21.155Z,4.42
2023-01-11T11:04:38.640Z,4.23
2023-01-11T11:06:40.129Z,4.26
2023-01-11T11:08:59.682Z,4.30
2023-01-11T11:11:14.115Z,4.29
2023-01-11T11:13:18.795Z,4.24
2023-01-11T11:15:21.825Z,4.44
2023-01-11T11:17:28.241Z,4.69
2023-01-11T11:19:32.471Z,4.93
2023-01-11T11:21:34.806Z,5.16
2023-01-11T11:23:36.585Z,5.28
2023-01-11T11:25:38.716Z,5.21
2023-01-11T11:27:41.372Z,5.19
2023-01-11T11:29:43.958Z,5.30
2023-01-11T11:31:47.167Z,5.50
2023-01-11T11:33:48.779Z,5.61
2023-01-11T11:36:01.359Z,5.72
2023-01-11T11:38:02.955Z,5.81
2023-01-11T11:40:04.729Z,5.78
2023-01-11T11:42:07.390Z,5.86
2023-01-11T11:44:14.377Z,5.94
2023-01-11T11:46:19.391Z,5.73
2023-01-11T11:48:21.814Z,5.49
2023-01-11T11:50:43.261Z,5.48
2023-01-11T11:52:47.820Z,5.46
2023-01-11T11:54:50.214Z,5.57
2023-01-11T11:56:51.804Z,5.66
2023-01-11T11:58:53.409Z,5.64
2023-01-11T12:00:55.148Z,5.33
2023-01-11T12:02:58.044Z,5.29
2023-01-11T12:05:00.197Z,5.20
2023-01-11T12:07:09.260Z,5.19
2023-01-11T12:09:25.221Z,5.31
2023-01-11T12:11:30.165Z,5.45
2023-01-11T12:13:32.988Z,5.48
2023-01-11T12:15:34.702Z,5.53
2023-01-11T12:17:36.429Z,5.67
2023-01-11T12:19:41.765Z,5.74
2023-01-11T12:21:43.259Z,5.34
2023-01-11T12:23:44.946Z,4.90
2023-01-11T12:25:46.423Z,4.47
2023-01-11T12:27:55.332Z,4.48
2023-01-11T12:29:59.859Z,4.47
2023-01-11T12:32:06.265Z,4.35
2023-01-11T12:34:16.973Z,4.17
2023-01-11T12:36:21.577Z,4.01
2023-01-11T12:38:25.820Z,4.06
2023-01-11T12:40:37.853Z,4.32
2023-01-11T12:42:45.606Z,4.38
2023-01-11T12:45:02.089Z,4.53
2023-01-11T12:47:06.812Z,4.74
2023-01-11T12:49:19.386Z,4.93
2023-01-11T12:51:27.744Z,5.08
2023-01-11T12:53:38.656Z,4.99
2023-01-11T12:55:58.337Z,5.13
2023-01-11T12:58:32.197Z,5.22
2023-01-11T13:00:52.226Z,5.32
2023-01-11T13:03:02.933Z,5.43
2023-01-11T13:05:25.068Z,5.27
2023-01-11T13:07:35.181Z,5.13
2023-01-11T13:09:39.577Z,5.28
2023-01-11T13:12:00.234Z,5.34
2023-01-11T13:14:07.884Z,5.40
2023-01-11T13:16:14.393Z,5.46
2023-01-11T13:18:19.187Z,5.52
2023-01-11T13:20:25.920Z,5.57
2023-01-11T13:22:32.382Z,5.32
2023-01-11T13:24:33.937Z,5.25
2023-01-11T13:26:36.310Z,5.32
2023-01-11T13:28:38.883Z,5.46
2023-01-11T13:30:40.747Z,5.53
2023-01-11T13:32:44.332Z,5.59
2023-01-11T13:34:48.325Z,5.65
2023-01-11T13:36:54.685Z,5.65
2023-01-11T13:39:05.036Z,5.68
2023-01-11T13:41:12.159Z,5.48
2023-01-11T13:43:16.412Z,5.34
2023-01-11T13:45:19.147Z,5.29
2023-01-11T13:47:21.416Z,5.09
2023-01-11T13:49:38.627Z,5.13
2023-01-11T13:51:46.876Z,5.25
2023-01-11T13:53:51.460Z,5.05
2023-01-11T13:56:06.511Z,4.86
2023-01-11T13:58:23.597Z,4.87
2023-01-11T14:00:27.447Z,5.03
2023-01-11T14:02:37.974Z,5.14
2023-01-11T14:05:18.389Z,5.24
2023-01-11T14:07:26.139Z,5.35
2023-01-11T14:09:30.298Z,5.45
2023-01-11T14:11:31.910Z,5.45
2023-01-11T14:14:17.545Z,5.46
2023-01-11T14:16:41.155Z,5.40
2023-01-11T14:19:15.560Z,5.39
2023-01-11T14:21:35.779Z,5.41
2023-01-11T14:23:47.984Z,5.46
2023-01-11T14:25:59.059Z,5.49
2023-01-11T14:28:07.126Z,5.56
2023-01-11T14:30:17.540Z,5.65
2023-01-11T14:32:19.031Z,5.69
2023-01-11T14:34:26.387Z,5.66
2023-01-11T14:36:27.869Z,5.56
2023-01-11T14:38:29.614Z,5.56
2023-01-11T14:40:42.948Z,5.52
2023-01-11T14:42:50.335Z,5.33
2023-01-11T14:45:13.513Z,4.99
2023-01-11T14:47:33.887Z,4.41
2023-01-11T14:49:49.267Z,4.45
2023-01-11T14:51:58.884Z,4.44
2023-01-11T14:54:11.191Z,4.45
2023-01-11T14:56:32.530Z,4.58
2023-01-11T14:58:34.049Z,4.71
2023-01-11T15:00:35.566Z,4.79
2023-01-11T15:02:37.242Z,4.93
2023-01-11T15:04:56.904Z,5.05
2023-01-11T15:06:58.461Z,5.11
2023-01-11T15:09:00.517Z,5.11
2023-01-11T15:11:24.844Z,5.17
2023-01-11T15:13:26.638Z,5.19
2023-01-11T15:15:48.401Z,5.03
2023-01-11T15:18:14.732Z,4.64
2023-01-11T15:20:19.964Z,4.50
2023-01-11T15:22:31.209Z,4.01
2023-01-11T15:24:37.338Z,3.90
2023-01-11T15:26:48.692Z,3.87
2023-01-11T15:28:57.240Z,3.95
2023-01-11T15:30:58.885Z,4.04
2023-01-11T15:33:18.891Z,4.06
2023-01-11T15:35:23.895Z,4.16
2023-01-11T15:37:28.751Z,4.09
2023-01-11T15:39:46.453Z,3.99
2023-01-11T15:42:06.922Z,3.88
2023-01-11T15:44:22.719Z,3.91
2023-01-11T15:46:54.790Z,3.91
2023-01-11T15:49:07.656Z,3.76
2023-01-11T15:51:27.852Z,3.43
2023-01-11T15:53:38.429Z,3.38
2023-01-11T15:55:39.919Z,3.51
2023-01-11T15:58:00.026Z,3.54
2023-01-11T16:00:20.158Z,3.57
2023-01-11T16:02:36.823Z,3.71
2023-01-11T16:04:54.166Z,3.67
2023-01-11T16:06:59.402Z,3.56
2023-01-11T16:09:12.786Z,3.42
2023-01-11T16:11:38.537Z,3.46
2023-01-11T16:13:57.844Z,3.46
2023-01-11T16:16:06.955Z,3.56
2023-01-11T16:18:20.923Z,3.75
2023-01-11T16:20:23.841Z,3.99
2023-01-11T16:22:26.568Z,4.21
2023-01-11T16:24:29.764Z,4.40
2023-01-11T16:26:31.440Z,4.48
2023-01-11T16:28:33.026Z,4.55
2023-01-11T16:30:34.538Z,4.54
2023-01-11T16:32:37.676Z,4.60
2023-01-11T16:34:43.298Z,4.59
2023-01-11T16:36:49.059Z,4.58
2023-01-11T16:38:50.599Z,4.49
2023-01-11T16:40:54.334Z,4.58
2023-01-11T16:43:01.617Z,4.63
2023-01-11T16:45:04.267Z,4.72
2023-01-11T16:47:15.841Z,4.74
2023-01-11T16:49:17.946Z,4.70
2023-01-11T16:51:19.530Z,4.18
2023-01-11T16:53:21.022Z,3.87
2023-01-11T16:55:25.701Z,3.92
2023-01-11T16:57:31.424Z,3.97
2023-01-11T16:59:34.859Z,4.08
2023-01-11T17:01:51.877Z,4.28
2023-01-11T17:03:54.592Z,4.03
2023-01-11T17:05:57.494Z,4.12
2023-01-11T17:07:58.926Z,4.08
2023-01-11T17:10:35.889Z,4.15
2023-01-11T17:12:37.410Z,4.31
2023-01-11T17:14:38.891Z,4.46
2023-01-11T17:16:41.262Z,4.46
2023-01-11T17:18:43.320Z,4.47
2023-01-11T17:20:44.775Z,4.47
2023-01-11T17:22:46.489Z,4.40
2023-01-11T17:24:49.761Z,4.45
2023-01-11T17:26:54.380Z,4.50
2023-01-11T17:28:57.600Z,4.44
2023-01-11T17:31:00.294Z,4.06
2023-01-11T17:33:01.868Z,4.04
2023-01-11T17:35:16.951Z,4.16
2023-01-11T17:37:18.442Z,4.26
2023-01-11T17:39:29.204Z,4.35
2023-01-11T17:41:49.664Z,4.38
2023-01-11T17:44:09.946Z,4.21
2023-01-11T17:46:16.911Z,4.29
2023-01-11T17:48:20.496Z,4.22
2023-01-11T17:50:27.220Z,4.16
2023-01-11T17:52:29.441Z,3.83
2023-01-11T17:54:31.030Z,3.88
2023-01-11T17:56:32.742Z,3.95
2023-01-11T17:58:34.925Z,3.93
2023-01-11T18:00:36.491Z,4.01
2023-01-11T18:02:41.356Z,4.16
2023-01-11T18:04:42.916Z,4.30
2023-01-11T18:06:45.223Z,4.32
2023-01-11T18:08:47.663Z,4.41
2023-01-11T18:10:53.189Z,4.50
2023-01-11T18:12:57.969Z,4.62
2023-01-11T18:15:00.382Z,4.71
2023-01-11T18:17:03.042Z,4.71
2023-01-11T18:19:21.938Z,4.72
2023-01-11T18:21:26.801Z,4.72
2023-01-11T18:23:28.320Z,4.74
2023-01-11T18:25:30.778Z,4.72
2023-01-11T18:27:33.198Z,4.71
2023-01-11T18:29:37.711Z,4.72
2023-01-11T18:31:39.233Z,4.70
2023-01-11T18:33:41.800Z,4.73
2023-01-11T18:35:46.719Z,4.68
2023-01-11T18:37:48.602Z,4.65
2023-01-11T18:39:50.784Z,4.63
2023-01-11T18:42:08.515Z,4.65
2023-01-11T18:44:10.734Z,4.68
2023-01-11T18:46:12.277Z,4.65
2023-01-11T18:48:14.351Z,4.63
2023-01-11T18:50:18.062Z,4.61
2023-01-11T18:52:40.332Z,4.65
2023-01-11T18:54:42.040Z,4.69
2023-01-11T18:56:43.697Z,4.75
2023-01-11T18:59:03.840Z,4.73
2023-01-11T19:01:07.026Z,4.76
2023-01-11T19:03:09.586Z,4.80
2023-01-11T19:05:14.049Z,4.83
2023-01-11T19:07:15.774Z,4.88
2023-01-11T19:09:17.255Z,4.90
2023-01-11T19:11:18.959Z,4.91
2023-01-11T19:13:21.146Z,4.88
2023-01-11T19:15:22.704Z,4.91
2023-01-11T19:17:24.340Z,4.91
2023-01-11T19:19:26.023Z,4.86
2023-01-11T19:21:27.518Z,4.85
2023-01-11T19:23:29.203Z,4.82
2023-01-11T19:25:30.977Z,4.79
2023-01-11T19:27:33.458Z,4.83
2023-01-11T19:29:34.949Z,4.80
2023-01-11T19:31:36.634Z,4.79
2023-01-11T19:33:40.216Z,4.85
2023-01-11T19:35:47.655Z,4.47
2023-01-11T19:37:49.667Z,4.15
2023-01-11T19:39:51.150Z,4.25
2023-01-11T19:41:57.997Z,4.33
2023-01-11T19:43:59.593Z,4.41
2023-01-11T19:46:02.330Z,4.39
2023-01-11T19:48:04.626Z,4.29
2023-01-11T19:50:07.366Z,4.34
2023-01-11T19:52:14.026Z,4.01
2023-01-11T19:54:16.241Z,4.07
2023-01-11T19:56:17.734Z,4.12
2023-01-11T19:58:19.194Z,4.03
2023-01-11T20:00:20.744Z,4.06
2023-01-11T20:02:22.698Z,4.07
2023-01-11T20:04:25.866Z,4.08
2023-01-11T20:06:27.462Z,4.14
2023-01-11T20:08:29.096Z,4.14
2023-01-11T20:10:30.539Z,4.10
2023-01-11T20:12:32.040Z,4.08
2023-01-11T20:14:34.272Z,4.09
2023-01-11T20:16:35.728Z,4.20
2023-01-11T20:18:37.225Z,4.22
2023-01-11T20:20:38.744Z,4.20
2023-01-11T20:22:43.145Z,4.20
2023-01-11T20:24:44.629Z,4.24
2023-01-11T20:26:49.133Z,4.27
2023-01-11T20:28:52.019Z,4.28
2023-01-11T20:30:53.930Z,4.32
2023-01-11T20:32:55.450Z,4.40
2023-01-11T20:34:56.927Z,4.40
2023-01-11T20:36:58.375Z,4.43
2023-01-11T20:38:59.926Z,4.46
2023-01-11T20:41:05.544Z,4.47
2023-01-11T20:43:07.403Z,4.53
2023-01-11T20:45:09.322Z,4.57
2023-01-11T20:47:10.775Z,4.59
2023-01-11T20:49:12.624Z,4.52
2023-01-11T20:51:15.525Z,4.47
2023-01-11T20:53:17.516Z,4.43
2023-01-11T20:55:19.409Z,4.49
2023-01-11T20:57:21.433Z,4.54
2023-01-11T20:59:22.881Z,4.46
2023-01-11T21:01:27.467Z,4.43
2023-01-11T21:03:29.004Z,4.23
2023-01-11T21:05:30.769Z,4.19
2023-01-11T21:07:32.485Z,4.21
2023-01-11T21:09:34.010Z,4.21
2023-01-11T21:11:35.528Z,4.16
2023-01-11T21:13:37.527Z,4.17
2023-01-11T21:15:39.109Z,4.21
2023-01-11T21:17:40.900Z,4.28
2023-01-11T21:19:43.803Z,4.27
2023-01-11T21:21:45.338Z,4.24
2023-01-11T21:23:47.173Z,4.29
2023-01-11T21:25:48.651Z,4.37
2023-01-11T21:27:51.129Z,4.40
2023-01-11T21:29:53.487Z,4.44
2023-01-11T21:31:55.009Z,4.41
2023-01-11T21:33:56.548Z,4.44
2023-01-11T21:36:04.391Z,4.43
2023-01-11T21:38:05.926Z,4.44
2023-01-11T21:40:07.792Z,4.48
2023-01-11T21:42:09.418Z,4.54
2023-01-11T21:44:11.560Z,4.51
2023-01-11T21:46:13.283Z,4.49
2023-01-11T21:48:14.888Z,4.51
2023-01-11T21:50:16.666Z,4.45
2023-01-11T21:52:18.170Z,4.42
2023-01-11T21:54:19.796Z,4.42
2023-01-11T21:56:21.452Z,4.46
2023-01-11T21:58:23.981Z,4.44
2023-01-11T22:00:25.996Z,4.23
2023-01-11T22:02:28.390Z,4.21
2023-01-11T22:04:29.936Z,4.22
2023-01-11T22:06:31.449Z,4.10
2023-01-11T22:08:34.226Z,4.17
2023-01-11T22:10:35.797Z,4.21
2023-01-11T22:12:37.630Z,4.20
2023-01-11T22:14:39.153Z,4.24
2023-01-11T22:16:40.928Z,4.29
2023-01-11T22:18:42.949Z,4.28
2023-01-11T22:20:44.443Z,4.27
2023-01-11T22:22:46.042Z,4.29
2023-01-11T22:24:47.713Z,4.27
2023-01-11T22:26:49.353Z,4.30
2023-01-11T22:29:12.893Z,4.23
2023-01-11T22:31:15.803Z,4.22
2023-01-11T22:33:17.389Z,4.24
2023-01-11T22:35:18.879Z,4.22
2023-01-11T22:37:20.505Z,4.29
2023-01-11T22:39:22.117Z,4.24
2023-01-11T22:41:24.532Z,4.23
2023-01-11T22:43:26.160Z,4.18
2023-01-11T22:45:27.718Z,4.10
2023-01-11T22:47:29.303Z,4.14
2023-01-11T22:49:31.165Z,4.19
2023-01-11T22:51:32.638Z,4.20
2023-01-11T22:53:37.513Z,4.14
2023-01-11T22:55:39.073Z,4.05
2023-01-11T22:57:40.636Z,3.99
2023-01-11T22:59:42.152Z,3.93
2023-01-11T23:01:43.685Z,3.93
2023-01-11T23:03:45.447Z,3.81
2023-01-11T23:05:47.113Z,3.74
2023-01-11T23:07:49.988Z,3.57
2023-01-11T23:09:51.551Z,3.46
2023-01-11T23:12:11.399Z,3.24
2023-01-11T23:14:15.151Z,3.06
2023-01-11T23:16:16.695Z,3.17
2023-01-11T23:18:18.207Z,3.15
2023-01-11T23:20:19.774Z,2.85
2023-01-11T23:22:21.352Z,2.99
2023-01-11T23:24:22.921Z,3.09
2023-01-11T23:26:24.632Z,3.20
2023-01-11T23:28:26.126Z,3.26
2023-01-11T23:30:27.683Z,3.29
2023-01-11T23:32:29.209Z,3.35
2023-01-11T23:34:30.740Z,3.39
2023-01-11T23:36:34.633Z,3.48
2023-01-11T23:38:36.186Z,3.51
2023-01-11T23:40:56.209Z,3.56
2023-01-11T23:42:59.402Z,3.61
2023-01-11T23:45:00.920Z,3.61
2023-01-11T23:47:21.040Z,3.61
2023-01-11T23:49:22.882Z,3.54
2023-01-11T23:51:25.739Z,3.55
2023-01-11T23:53:27.291Z,3.58
2023-01-11T23:55:28.974Z,3.57
2023-01-11T23:57:30.568Z,3.52
2023-01-11T23:59:32.188Z,3.61
